createdAt,value
2022-12-31T00:00:10.426Z,59.51
2022-12-31T00:03:35.735Z,59.67
2022-12-31T00:06:41.172Z,59.49
2022-12-31T00:09:44.774Z,59.17
2022-12-31T00:12:48.701Z,59.24
2022-12-31T00:15:52.713Z,59.10
2022-12-31T00:19:00.240Z,58.09
2022-12-31T00:22:05.768Z,58.16
2022-12-31T00:25:11.190Z,59.12
2022-12-31T00:28:14.736Z,59.83
2022-12-31T00:31:21.542Z,60.33
2022-12-31T00:34:29.403Z,59.23
2022-12-31T00:37:34.903Z,58.55
2022-12-31T00:40:40.314Z,59.38
2022-12-31T00:43:45.289Z,60.40
2022-12-31T00:46:50.693Z,60.75
2022-12-31T00:49:56.937Z,60.52
2022-12-31T00:53:02.273Z,60.27
2022-12-31T00:56:12.962Z,59.84
2022-12-31T00:59:19.447Z,59.00
2022-12-31T01:02:24.551Z,59.21
2022-12-31T01:05:28.244Z,59.34
2022-12-31T01:08:35.963Z,59.52
2022-12-31T01:11:59.494Z,59.96
2022-12-31T01:15:04.591Z,58.74
2022-12-31T01:18:09.692Z,58.00
2022-12-31T01:21:15.832Z,58.72
2022-12-31T01:24:22.399Z,59.68
2022-12-31T01:27:26.453Z,59.82
2022-12-31T01:30:35.131Z,59.85
2022-12-31T01:33:43.696Z,60.08
2022-12-31T01:36:48.001Z,59.07
2022-12-31T01:39:55.496Z,59.19
2022-12-31T01:43:00.142Z,58.99
2022-12-31T01:46:08.750Z,58.96
2022-12-31T01:49:18.473Z,58.94
2022-12-31T01:52:27.228Z,60.25
2022-12-31T01:55:39.676Z,60.19
2022-12-31T01:58:50.898Z,59.56
2022-12-31T02:01:56.157Z,59.87
2022-12-31T02:05:04.324Z,58.79
2022-12-31T02:08:08.234Z,59.74
2022-12-31T02:11:27.700Z,60.33
2022-12-31T02:14:37.171Z,59.57
2022-12-31T02:17:49.277Z,59.21
2022-12-31T02:21:16.798Z,59.68
2022-12-31T02:25:05.360Z,58.63
2022-12-31T02:28:28.906Z,60.43
2022-12-31T02:31:38.680Z,60.15
2022-12-31T02:34:49.097Z,60.51
2022-12-31T02:38:00.235Z,60.03
2022-12-31T02:41:04.306Z,59.49
2022-12-31T02:44:23.066Z,60.04
2022-12-31T02:47:41.582Z,60.08
2022-12-31T02:50:59.174Z,59.86
2022-12-31T02:54:21.250Z,60.50
2022-12-31T02:57:35.701Z,58.66
2022-12-31T03:01:04.073Z,60.56
2022-12-31T03:04:25.008Z,60.98
2022-12-31T03:07:36.420Z,61.16
2022-12-31T03:10:42.798Z,59.77
2022-12-31T03:13:45.263Z,59.85
2022-12-31T03:16:50.672Z,60.49
2022-12-31T03:20:15.333Z,59.22
2022-12-31T03:23:26.526Z,58.80
2022-12-31T03:26:29.180Z,58.86
2022-12-31T03:29:33.474Z,58.72
2022-12-31T03:32:37.422Z,58.45
2022-12-31T03:35:44.432Z,59.05
2022-12-31T03:38:52.703Z,59.85
2022-12-31T03:41:56.772Z,58.97
2022-12-31T03:45:00.558Z,59.55
2022-12-31T03:48:07.059Z,59.73
2022-12-31T03:51:13.629Z,60.48
2022-12-31T03:54:19.199Z,59.95
2022-12-31T03:57:22.792Z,59.20
2022-12-31T04:00:27.205Z,59.01
2022-12-31T04:03:30.667Z,59.13
2022-12-31T04:06:37.221Z,59.73
2022-12-31T04:09:41.240Z,60.16
2022-12-31T04:12:45.882Z,58.47
2022-12-31T04:15:52.262Z,58.40
2022-12-31T04:19:01.284Z,58.90
2022-12-31T04:22:06.845Z,58.35
2022-12-31T04:25:12.113Z,58.43
2022-12-31T04:28:16.839Z,59.23
2022-12-31T04:31:20.805Z,59.34
2022-12-31T04:34:24.327Z,58.82
2022-12-31T04:37:31.722Z,58.28
2022-12-31T04:40:56.453Z,58.70
2022-12-31T04:44:01.301Z,58.46
2022-12-31T04:47:05.149Z,58.50
2022-12-31T04:50:09.540Z,58.55
2022-12-31T04:53:14.551Z,58.93
2022-12-31T04:56:18.596Z,58.01
2022-12-31T04:59:22.118Z,58.36
2022-12-31T05:02:27.423Z,59.42
2022-12-31T05:05:31.493Z,59.12
2022-12-31T05:08:42.253Z,59.59
2022-12-31T05:11:46.473Z,59.31
2022-12-31T05:14:52.082Z,58.32
2022-12-31T05:17:55.791Z,59.54
2022-12-31T05:21:03.739Z,59.98
2022-12-31T05:24:09.622Z,59.24
2022-12-31T05:27:13.741Z,58.80
2022-12-31T05:30:18.699Z,59.38
2022-12-31T05:33:23.079Z,58.58
2022-12-31T05:36:26.761Z,57.99
2022-12-31T05:39:32.336Z,57.97
2022-12-31T05:42:36.418Z,58.21
2022-12-31T05:45:40.922Z,58.42
2022-12-31T05:48:44.373Z,57.77
2022-12-31T05:51:49.276Z,58.91
2022-12-31T05:54:54.565Z,59.58
2022-12-31T05:57:58.299Z,59.52
2022-12-31T06:01:04.278Z,59.57
2022-12-31T06:04:09.387Z,59.25
2022-12-31T06:07:14.596Z,58.96
2022-12-31T06:10:20.025Z,58.18
2022-12-31T06:13:23.619Z,58.60
2022-12-31T06:16:28.871Z,58.39
2022-12-31T06:19:32.723Z,58.43
2022-12-31T06:22:37.184Z,57.42
2022-12-31T06:25:44.265Z,57.33
2022-12-31T06:28:51.357Z,57.02
2022-12-31T06:31:56.886Z,57.15
2022-12-31T06:35:00.972Z,57.48
2022-12-31T06:38:05.893Z,57.32
2022-12-31T06:41:16.109Z,57.96
2022-12-31T06:44:22.420Z,59.22
2022-12-31T06:47:29.664Z,57.91
2022-12-31T06:50:33.339Z,58.38
2022-12-31T06:53:38.947Z,59.36
2022-12-31T06:57:03.151Z,59.79
2022-12-31T07:00:11.355Z,60.54
2022-12-31T07:03:30.889Z,60.76
2022-12-31T07:06:45.148Z,59.70
2022-12-31T07:10:01.032Z,59.75
2022-12-31T07:13:37.364Z,60.93
2022-12-31T07:16:57.596Z,61.58
2022-12-31T07:20:07.186Z,61.35
2022-12-31T07:23:12.397Z,60.84
2022-12-31T07:26:28.693Z,60.20
2022-12-31T07:29:47.700Z,60.77
2022-12-31T07:33:13.334Z,60.26
2022-12-31T07:36:33.457Z,61.04
2022-12-31T07:39:43.479Z,60.67
2022-12-31T07:43:05.735Z,60.55
2022-12-31T07:46:18.663Z,60.64
2022-12-31T07:49:25.100Z,61.04
2022-12-31T07:52:29.757Z,61.08
2022-12-31T07:55:35.303Z,60.59
2022-12-31T07:58:55.795Z,60.63
2022-12-31T08:02:30.361Z,61.35
2022-12-31T08:05:47.622Z,60.73
2022-12-31T08:09:01.964Z,60.66
2022-12-31T08:12:11.375Z,60.68
2022-12-31T08:15:16.968Z,60.66
2022-12-31T08:18:23.460Z,60.36
2022-12-31T08:21:52.253Z,61.21
2022-12-31T08:25:12.721Z,62.88
2022-12-31T08:28:28.404Z,62.70
2022-12-31T08:31:45.315Z,63.52
2022-12-31T08:35:01.032Z,63.00
2022-12-31T08:38:18.907Z,63.61
2022-12-31T08:41:30.487Z,62.91
2022-12-31T08:44:41.508Z,63.90
2022-12-31T08:47:59.886Z,63.27
2022-12-31T08:51:19.103Z,63.30
2022-12-31T08:54:23.560Z,63.38
2022-12-31T08:57:34.768Z,64.32
2022-12-31T09:00:41.909Z,63.82
2022-12-31T09:04:05.675Z,64.49
2022-12-31T09:07:15.430Z,64.67
2022-12-31T09:10:26.007Z,65.43
2022-12-31T09:13:39.096Z,65.10
2022-12-31T09:16:55.646Z,64.11
2022-12-31T09:20:00.342Z,64.71
2022-12-31T09:23:07.267Z,64.33
2022-12-31T09:26:37.128Z,65.11
2022-12-31T09:29:50.267Z,64.56
2022-12-31T09:33:02.713Z,63.92
2022-12-31T09:36:09.380Z,63.97
2022-12-31T09:39:18.296Z,63.69
2022-12-31T09:42:49.962Z,64.12
2022-12-31T09:46:19.220Z,63.69
2022-12-31T09:49:56.538Z,63.03
2022-12-31T09:53:21.541Z,63.33
2022-12-31T09:56:32.973Z,63.00
2022-12-31T09:59:44.032Z,62.71
2022-12-31T10:03:08.627Z,62.27
2022-12-31T10:06:27.155Z,62.10
2022-12-31T10:09:44.684Z,61.50
2022-12-31T10:13:11.818Z,61.37
2022-12-31T10:16:42.737Z,61.39
2022-12-31T10:20:10.120Z,61.20
2022-12-31T10:23:28.013Z,61.63
2022-12-31T10:26:53.873Z,60.26
2022-12-31T10:30:13.294Z,60.77
2022-12-31T10:33:26.052Z,60.37
2022-12-31T10:36:48.734Z,59.82
2022-12-31T10:40:06.792Z,59.91
2022-12-31T10:43:44.156Z,59.14
2022-12-31T10:47:04.018Z,59.35
2022-12-31T10:50:46.389Z,58.80
2022-12-31T10:54:17.099Z,59.26
2022-12-31T10:58:04.291Z,58.57
2022-12-31T11:01:20.045Z,58.79
2022-12-31T11:04:58.854Z,58.75
2022-12-31T11:08:19.411Z,58.73
2022-12-31T11:11:33.047Z,58.24
2022-12-31T11:14:52.202Z,58.00
2022-12-31T11:18:07.209Z,57.62
2022-12-31T11:21:41.329Z,57.06
2022-12-31T11:25:07.996Z,57.71
2022-12-31T11:28:32.254Z,56.90
2022-12-31T11:32:05.272Z,56.88
2022-12-31T11:35:23.533Z,56.27
2022-12-31T11:38:32.092Z,57.01
2022-12-31T11:41:44.429Z,57.06
2022-12-31T11:44:55.412Z,57.11
2022-12-31T11:48:30.295Z,56.67
2022-12-31T11:51:50.810Z,57.05
2022-12-31T11:55:13.675Z,56.89
2022-12-31T11:58:23.348Z,56.59
2022-12-31T12:01:33.350Z,56.18
2022-12-31T12:04:38.048Z,56.52
2022-12-31T12:07:44.300Z,56.16
2022-12-31T12:11:05.113Z,56.01
2022-12-31T12:14:21.320Z,56.27
2022-12-31T12:17:52.802Z,56.60
2022-12-31T12:21:14.032Z,56.28
2022-12-31T12:24:31.102Z,56.54
2022-12-31T12:27:40.911Z,55.75
2022-12-31T12:30:47.125Z,56.52
2022-12-31T12:33:57.027Z,55.70
2022-12-31T12:37:03.673Z,55.81
2022-12-31T12:40:19.983Z,55.75
2022-12-31T12:43:28.948Z,55.69
2022-12-31T12:46:35.840Z,56.32
2022-12-31T12:49:44.596Z,55.78
2022-12-31T12:53:15.607Z,55.58
2022-12-31T12:56:31.826Z,55.96
2022-12-31T12:59:54.615Z,55.79
2022-12-31T13:03:48.739Z,55.63
2022-12-31T13:07:18.185Z,55.01
2022-12-31T13:10:41.642Z,54.89
2022-12-31T13:13:54.067Z,55.77
2022-12-31T13:17:10.183Z,56.13
2022-12-31T13:20:25.160Z,56.01
2022-12-31T13:23:39.875Z,55.43
2022-12-31T13:26:53.927Z,55.82
2022-12-31T13:30:03.588Z,55.97
2022-12-31T13:33:17.440Z,55.82
2022-12-31T13:36:26.316Z,55.32
2022-12-31T13:39:34.881Z,55.59
2022-12-31T13:42:50.162Z,55.88
2022-12-31T13:46:04.785Z,55.89
2022-12-31T13:49:29.751Z,55.71
2022-12-31T13:52:37.768Z,56.15
2022-12-31T13:55:46.307Z,56.29
2022-12-31T13:58:56.049Z,56.71
2022-12-31T14:02:11.147Z,56.30
2022-12-31T14:05:29.727Z,56.85
2022-12-31T14:08:34.016Z,56.92
2022-12-31T14:11:54.852Z,57.40
2022-12-31T14:15:09.796Z,57.27
2022-12-31T14:18:21.825Z,57.62
2022-12-31T14:21:34.123Z,57.77
2022-12-31T14:24:48.742Z,58.16
2022-12-31T14:28:01.717Z,57.99
2022-12-31T14:31:24.371Z,57.75
2022-12-31T14:34:44.607Z,58.26
2022-12-31T14:37:59.376Z,58.25
2022-12-31T14:41:22.781Z,58.21
2022-12-31T14:44:36.956Z,58.42
2022-12-31T14:47:52.442Z,58.53
2022-12-31T14:50:56.878Z,58.46
2022-12-31T14:54:05.887Z,58.44
2022-12-31T14:57:12.561Z,58.68
2022-12-31T15:00:33.487Z,58.93
2022-12-31T15:03:45.908Z,59.00
2022-12-31T15:06:59.984Z,59.02
2022-12-31T15:10:18.049Z,59.29
2022-12-31T15:13:39.339Z,59.09
2022-12-31T15:16:53.772Z,59.08
2022-12-31T15:20:37.592Z,59.37
2022-12-31T15:23:45.742Z,59.56
2022-12-31T15:26:54.250Z,59.66
2022-12-31T15:29:59.015Z,59.28
2022-12-31T15:33:31.668Z,59.92
2022-12-31T16:01:18.803Z,61.24
2022-12-31T16:04:26.758Z,61.55
2022-12-31T16:07:36.841Z,61.36
2022-12-31T16:10:45.455Z,60.52
2022-12-31T16:13:52.035Z,60.26
2022-12-31T16:16:59.595Z,60.90
2022-12-31T16:20:21.533Z,60.97
2022-12-31T16:23:27.708Z,60.96
2022-12-31T16:26:38.399Z,60.31
2022-12-31T16:29:50.626Z,60.54
2022-12-31T16:33:02.693Z,60.95
2022-12-31T16:36:06.962Z,60.61
2022-12-31T16:39:27.670Z,61.40
2022-12-31T16:42:31.978Z,61.97
2022-12-31T16:45:37.170Z,61.15
2022-12-31T16:48:47.488Z,60.79
2022-12-31T16:51:51.252Z,60.98
2022-12-31T16:54:57.066Z,60.92
2022-12-31T16:58:06.279Z,61.20
2022-12-31T17:01:19.751Z,61.92
2022-12-31T17:04:34.670Z,60.68
2022-12-31T17:07:41.876Z,60.10
2022-12-31T17:10:48.778Z,60.20
2022-12-31T17:13:58.798Z,60.53
2022-12-31T17:17:05.129Z,60.18
2022-12-31T17:20:24.159Z,61.22
2022-12-31T17:23:32.727Z,59.40
2022-12-31T17:26:39.604Z,59.58
2022-12-31T17:29:51.639Z,59.51
2022-12-31T17:33:01.553Z,60.11
2022-12-31T17:36:25.193Z,60.28
2022-12-31T17:39:43.584Z,61.74
2022-12-31T17:42:47.716Z,60.67
2022-12-31T17:45:53.201Z,59.91
2022-12-31T17:49:01.962Z,59.95
2022-12-31T17:52:13.348Z,60.07
2022-12-31T17:55:17.502Z,59.39
2022-12-31T17:58:29.765Z,59.27
2022-12-31T18:01:34.346Z,60.47
2022-12-31T18:04:38.972Z,61.47
2022-12-31T18:07:44.693Z,62.44
2022-12-31T18:10:49.973Z,61.86
2022-12-31T18:13:54.954Z,60.82
2022-12-31T18:16:59.195Z,59.62
2022-12-31T18:20:08.351Z,59.88
2022-12-31T18:23:24.729Z,60.28
2022-12-31T18:26:28.841Z,60.80
2022-12-31T18:29:34.143Z,60.77
2022-12-31T18:32:39.786Z,60.78
2022-12-31T18:39:10.521Z,59.70
2022-12-31T18:42:17.064Z,59.55
2022-12-31T18:45:25.300Z,59.02
2022-12-31T18:48:29.970Z,59.33
2022-12-31T18:51:37.874Z,58.86
2022-12-31T18:54:46.756Z,57.86
2022-12-31T18:57:51.427Z,58.45
2022-12-31T19:00:55.807Z,59.52
2022-12-31T19:04:04.416Z,59.75
2022-12-31T19:07:09.547Z,59.76
2022-12-31T19:10:17.198Z,59.03
2022-12-31T19:13:23.399Z,58.90
2022-12-31T19:16:30.527Z,60.56
2022-12-31T19:19:42.894Z,60.11
2022-12-31T19:22:47.656Z,60.58
2022-12-31T19:26:02.778Z,59.08
2022-12-31T19:29:07.574Z,59.32
2022-12-31T19:32:11.778Z,59.02
2022-12-31T19:35:17.261Z,59.42
2022-12-31T19:38:24.161Z,59.95
2022-12-31T19:41:30.634Z,60.45
2022-12-31T19:44:35.999Z,59.49
2022-12-31T19:47:42.063Z,61.86
2022-12-31T19:50:49.086Z,60.73
2022-12-31T19:53:54.661Z,60.61
2022-12-31T19:56:59.772Z,60.18
2022-12-31T20:00:03.317Z,60.80
2022-12-31T20:03:18.929Z,61.14
2022-12-31T20:06:25.697Z,61.72
2022-12-31T20:09:30.817Z,61.22
2022-12-31T20:12:44.401Z,60.71
2022-12-31T20:15:49.300Z,59.83
2022-12-31T20:18:52.948Z,59.81
2022-12-31T20:22:02.292Z,58.49
2022-12-31T20:25:06.644Z,59.49
2022-12-31T20:28:14.249Z,60.14
2022-12-31T20:31:23.852Z,60.19
2022-12-31T20:34:29.343Z,60.17
2022-12-31T20:37:32.900Z,58.72
2022-12-31T20:40:41.433Z,58.62
2022-12-31T20:43:52.190Z,59.22
2022-12-31T20:46:59.631Z,59.19
2022-12-31T20:50:13.402Z,58.89
2022-12-31T20:53:18.201Z,58.59
2022-12-31T20:56:21.744Z,59.32
2022-12-31T20:59:29.223Z,59.92
2022-12-31T21:02:41.429Z,59.01
2022-12-31T21:05:51.577Z,58.84
2022-12-31T21:08:56.241Z,58.44
2022-12-31T21:12:18.956Z,58.78
2022-12-31T21:15:23.882Z,59.19
2022-12-31T21:18:27.897Z,59.12
2022-12-31T21:21:31.695Z,59.63
2022-12-31T21:24:43.288Z,59.65
2022-12-31T21:27:46.742Z,59.49
2022-12-31T21:30:58.402Z,58.48
2022-12-31T21:34:03.552Z,58.92
2022-12-31T21:37:08.446Z,58.70
2022-12-31T21:40:37.633Z,59.25
2022-12-31T21:43:42.384Z,59.57
2022-12-31T21:47:24.884Z,59.40
2022-12-31T21:50:14.927Z,58.45
2022-12-31T21:53:24.768Z,58.44
2022-12-31T21:56:29.737Z,58.07
2022-12-31T21:59:48.953Z,58.34
2022-12-31T22:03:21.987Z,58.61
2022-12-31T22:06:26.057Z,59.57
2022-12-31T22:10:24.066Z,58.81
2022-12-31T22:13:27.925Z,58.53
2022-12-31T22:16:32.361Z,58.20
2022-12-31T22:20:00.938Z,59.11
2022-12-31T22:23:10.495Z,58.29
2022-12-31T22:26:20.833Z,57.92
2022-12-31T22:29:29.229Z,57.90
2022-12-31T22:32:33.280Z,58.90
2022-12-31T22:35:42.744Z,58.84
2022-12-31T22:38:49.139Z,59.55
2022-12-31T22:41:55.215Z,58.71
2022-12-31T22:45:02.449Z,58.44
2022-12-31T22:48:09.930Z,57.61
2022-12-31T22:51:17.837Z,57.52
2022-12-31T22:54:21.944Z,57.83
2022-12-31T22:57:30.993Z,58.72
2022-12-31T23:00:40.290Z,58.63
2022-12-31T23:03:50.682Z,59.34
2022-12-31T23:06:56.390Z,58.51
2022-12-31T23:10:17.234Z,58.29
2022-12-31T23:13:39.855Z,58.63
2022-12-31T23:17:29.854Z,58.07
2022-12-31T23:20:46.787Z,59.22
2022-12-31T23:23:56.265Z,58.81
2022-12-31T23:27:01.801Z,60.16
2022-12-31T23:30:06.257Z,59.65
2022-12-31T23:37:56.276Z,59.07
2022-12-31T23:41:12.984Z,58.61
2022-12-31T23:44:16.591Z,58.48
2022-12-31T23:47:26.300Z,58.66
2022-12-31T23:50:30.309Z,59.28
2022-12-31T23:53:34.627Z,59.22
2022-12-31T23:56:42.417Z,59.13
2022-12-31T23:59:46.747Z,58.97
